sensor_id;sensor_type;location;lat;lon;timestamp;P1;durP1;ratioP1;P2;durP2;ratioP2
13032;SDS011;6583;42.632;23.298;2023-05-10T00:00:47;10.03;;;8.50;;
13032;SDS011;6583;42.632;23.298;2023-05-10T00:03:14;11.87;;;8.67;;
13032;SDS011;6583;42.632;23.298;2023-05-10T00:05:40;11.40;;;9.43;;
13032;SDS011;6583;42.632;23.298;2023-05-10T00:08:07;10.70;;;8.83;;
13032;SDS011;6583;42.632;23.298;2023-05-10T00:10:34;10.57;;;8.90;;
13032;SDS011;6583;42.632;23.298;2023-05-10T00:13:01;11.43;;;8.63;;
13032;SDS011;6583;42.632;23.298;2023-05-10T00:15:29;9.67;;;8.67;;
13032;SDS011;6583;42.632;23.298;2023-05-10T00:17:56;12.27;;;9.73;;
13032;SDS011;6583;42.632;23.298;2023-05-10T00:20:23;10.90;;;9.67;;
13032;SDS011;6583;42.632;23.298;2023-05-10T00:22:49;11.23;;;9.20;;
13032;SDS011;6583;42.632;23.298;2023-05-10T00:25:16;12.50;;;10.63;;
13032;SDS011;6583;42.632;23.298;2023-05-10T00:27:43;13.97;;;11.17;;
13032;SDS011;6583;42.632;23.298;2023-05-10T00:30:09;12.07;;;10.40;;
13032;SDS011;6583;42.632;23.298;2023-05-10T00:32:38;11.70;;;10.13;;
13032;SDS011;6583;42.632;23.298;2023-05-10T00:35:04;12.50;;;10.50;;
13032;SDS011;6583;42.632;23.298;2023-05-10T00:37:31;13.70;;;10.53;;
13032;SDS011;6583;42.632;23.298;2023-05-10T00:39:58;10.70;;;9.47;;
13032;SDS011;6583;42.632;23.298;2023-05-10T00:42:25;11.70;;;10.03;;
13032;SDS011;6583;42.632;23.298;2023-05-10T00:44:51;12.37;;;9.77;;
13032;SDS011;6583;42.632;23.298;2023-05-10T00:47:18;11.77;;;9.73;;
13032;SDS011;6583;42.632;23.298;2023-05-10T00:49:46;11.00;;;8.93;;
13032;SDS011;6583;42.632;23.298;2023-05-10T00:52:13;11.57;;;9.73;;
13032;SDS011;6583;42.632;23.298;2023-05-10T00:54:40;11.03;;;9.50;;
13032;SDS011;6583;42.632;23.298;2023-05-10T00:57:07;11.00;;;9.00;;
13032;SDS011;6583;42.632;23.298;2023-05-10T00:59:34;14.13;;;9.33;;
13032;SDS011;6583;42.632;23.298;2023-05-10T01:02:01;10.90;;;9.57;;
13032;SDS011;6583;42.632;23.298;2023-05-10T01:04:28;12.13;;;9.43;;
13032;SDS011;6583;42.632;23.298;2023-05-10T01:06:57;11.20;;;9.30;;
13032;SDS011;6583;42.632;23.298;2023-05-10T01:09:24;11.50;;;10.00;;
13032;SDS011;6583;42.632;23.298;2023-05-10T01:11:52;12.23;;;9.77;;
13032;SDS011;6583;42.632;23.298;2023-05-10T01:14:20;10.20;;;8.80;;
13032;SDS011;6583;42.632;23.298;2023-05-10T01:16:48;10.00;;;8.13;;
13032;SDS011;6583;42.632;23.298;2023-05-10T01:19:17;10.50;;;8.80;;
13032;SDS011;6583;42.632;23.298;2023-05-10T01:21:49;10.83;;;8.93;;
13032;SDS011;6583;42.632;23.298;2023-05-10T01:24:40;9.37;;;8.10;;
13032;SDS011;6583;42.632;23.298;2023-05-10T01:33:37;8.17;;;7.30;;
13032;SDS011;6583;42.632;23.298;2023-05-10T01:36:11;8.60;;;7.70;;
13032;SDS011;6583;42.632;23.298;2023-05-10T01:38:51;9.90;;;7.83;;
13032;SDS011;6583;42.632;23.298;2023-05-10T01:41:24;8.30;;;7.40;;
13032;SDS011;6583;42.632;23.298;2023-05-10T01:44:00;7.90;;;7.10;;
13032;SDS011;6583;42.632;23.298;2023-05-10T01:46:34;7.53;;;6.77;;
13032;SDS011;6583;42.632;23.298;2023-05-10T01:49:09;8.73;;;7.83;;
13032;SDS011;6583;42.632;23.298;2023-05-10T01:51:41;5.97;;;5.20;;
13032;SDS011;6583;42.632;23.298;2023-05-10T01:54:12;10.33;;;7.07;;
13032;SDS011;6583;42.632;23.298;2023-05-10T01:56:40;8.97;;;7.83;;
13032;SDS011;6583;42.632;23.298;2023-05-10T01:59:11;5.77;;;5.17;;
13032;SDS011;6583;42.632;23.298;2023-05-10T02:01:41;7.13;;;6.43;;
13032;SDS011;6583;42.632;23.298;2023-05-10T02:04:11;7.27;;;6.43;;
13032;SDS011;6583;42.632;23.298;2023-05-10T02:06:41;6.93;;;5.97;;
13032;SDS011;6583;42.632;23.298;2023-05-10T02:09:09;5.67;;;4.70;;
13032;SDS011;6583;42.632;23.298;2023-05-10T02:11:37;6.03;;;5.43;;
13032;SDS011;6583;42.632;23.298;2023-05-10T02:14:07;6.53;;;5.80;;
13032;SDS011;6583;42.632;23.298;2023-05-10T02:16:36;6.53;;;5.20;;
13032;SDS011;6583;42.632;23.298;2023-05-10T02:19:05;5.40;;;4.90;;
13032;SDS011;6583;42.632;23.298;2023-05-10T02:21:35;5.77;;;4.83;;
13032;SDS011;6583;42.632;23.298;2023-05-10T02:24:04;5.40;;;4.90;;
13032;SDS011;6583;42.632;23.298;2023-05-10T02:26:31;6.37;;;5.77;;
13032;SDS011;6583;42.632;23.298;2023-05-10T02:29:01;7.13;;;5.60;;
13032;SDS011;6583;42.632;23.298;2023-05-10T02:31:29;6.47;;;5.80;;
13032;SDS011;6583;42.632;23.298;2023-05-10T02:33:58;6.57;;;5.93;;
13032;SDS011;6583;42.632;23.298;2023-05-10T02:36:26;7.47;;;6.53;;
13032;SDS011;6583;42.632;23.298;2023-05-10T02:38:55;9.13;;;6.93;;
13032;SDS011;6583;42.632;23.298;2023-05-10T02:41:23;7.67;;;6.33;;
13032;SDS011;6583;42.632;23.298;2023-05-10T02:43:51;7.07;;;6.03;;
13032;SDS011;6583;42.632;23.298;2023-05-10T02:46:23;7.77;;;6.80;;
13032;SDS011;6583;42.632;23.298;2023-05-10T02:48:49;5.27;;;4.77;;
13032;SDS011;6583;42.632;23.298;2023-05-10T02:51:16;5.00;;;4.50;;
13032;SDS011;6583;42.632;23.298;2023-05-10T02:53:46;4.70;;;4.10;;
13032;SDS011;6583;42.632;23.298;2023-05-10T02:56:19;4.97;;;4.47;;
13032;SDS011;6583;42.632;23.298;2023-05-10T02:58:51;4.60;;;4.10;;
13032;SDS011;6583;42.632;23.298;2023-05-10T03:01:18;5.40;;;4.90;;
13032;SDS011;6583;42.632;23.298;2023-05-10T03:03:45;5.63;;;5.13;;
13032;SDS011;6583;42.632;23.298;2023-05-10T03:06:11;5.40;;;4.90;;
13032;SDS011;6583;42.632;23.298;2023-05-10T03:08:38;5.27;;;4.63;;
13032;SDS011;6583;42.632;23.298;2023-05-10T03:11:09;5.47;;;4.97;;
13032;SDS011;6583;42.632;23.298;2023-05-10T03:13:52;5.43;;;4.70;;
13032;SDS011;6583;42.632;23.298;2023-05-10T03:16:32;5.73;;;5.10;;
13032;SDS011;6583;42.632;23.298;2023-05-10T03:19:06;4.40;;;4.00;;
13032;SDS011;6583;42.632;23.298;2023-05-10T03:21:43;6.53;;;4.63;;
13032;SDS011;6583;42.632;23.298;2023-05-10T03:24:15;5.37;;;4.87;;
13032;SDS011;6583;42.632;23.298;2023-05-10T03:26:44;6.73;;;4.40;;
13032;SDS011;6583;42.632;23.298;2023-05-10T03:29:13;6.27;;;5.67;;
13032;SDS011;6583;42.632;23.298;2023-05-10T03:31:41;6.50;;;5.90;;
13032;SDS011;6583;42.632;23.298;2023-05-10T03:34:08;5.33;;;4.83;;
13032;SDS011;6583;42.632;23.298;2023-05-10T03:36:35;6.50;;;5.90;;
13032;SDS011;6583;42.632;23.298;2023-05-10T03:39:02;7.40;;;5.70;;
13032;SDS011;6583;42.632;23.298;2023-05-10T03:41:28;7.47;;;6.70;;
13032;SDS011;6583;42.632;23.298;2023-05-10T03:43:55;7.10;;;6.40;;
13032;SDS011;6583;42.632;23.298;2023-05-10T03:46:23;8.07;;;6.70;;
13032;SDS011;6583;42.632;23.298;2023-05-10T03:48:50;7.17;;;6.20;;
13032;SDS011;6583;42.632;23.298;2023-05-10T03:51:16;7.43;;;6.37;;
13032;SDS011;6583;42.632;23.298;2023-05-10T03:53:43;7.47;;;6.73;;
13032;SDS011;6583;42.632;23.298;2023-05-10T03:56:10;6.90;;;6.10;;
13032;SDS011;6583;42.632;23.298;2023-05-10T03:58:36;8.43;;;7.50;;
13032;SDS011;6583;42.632;23.298;2023-05-10T04:01:03;7.27;;;6.57;;
13032;SDS011;6583;42.632;23.298;2023-05-10T04:03:31;8.20;;;6.57;;
13032;SDS011;6583;42.632;23.298;2023-05-10T04:05:58;7.03;;;6.37;;
13032;SDS011;6583;42.632;23.298;2023-05-10T04:08:26;8.07;;;6.73;;
13032;SDS011;6583;42.632;23.298;2023-05-10T04:10:52;7.47;;;6.77;;
13032;SDS011;6583;42.632;23.298;2023-05-10T04:13:19;9.00;;;7.43;;
13032;SDS011;6583;42.632;23.298;2023-05-10T04:15:46;8.73;;;7.83;;
13032;SDS011;6583;42.632;23.298;2023-05-10T04:18:13;7.70;;;6.90;;
13032;SDS011;6583;42.632;23.298;2023-05-10T04:20:40;9.00;;;7.30;;
13032;SDS011;6583;42.632;23.298;2023-05-10T04:23:07;9.40;;;7.50;;
13032;SDS011;6583;42.632;23.298;2023-05-10T04:25:34;11.07;;;8.30;;
13032;SDS011;6583;42.632;23.298;2023-05-10T04:28:01;9.23;;;8.20;;
13032;SDS011;6583;42.632;23.298;2023-05-10T04:30:27;8.03;;;7.10;;
13032;SDS011;6583;42.632;23.298;2023-05-10T04:32:54;11.17;;;7.70;;
13032;SDS011;6583;42.632;23.298;2023-05-10T04:35:21;9.77;;;7.40;;
13032;SDS011;6583;42.632;23.298;2023-05-10T04:37:49;8.53;;;7.57;;
13032;SDS011;6583;42.632;23.298;2023-05-10T04:40:15;8.47;;;7.47;;
13032;SDS011;6583;42.632;23.298;2023-05-10T04:42:42;8.90;;;7.67;;
13032;SDS011;6583;42.632;23.298;2023-05-10T04:45:10;10.00;;;7.80;;
13032;SDS011;6583;42.632;23.298;2023-05-10T04:47:36;9.63;;;7.80;;
13032;SDS011;6583;42.632;23.298;2023-05-10T04:50:03;8.70;;;6.87;;
13032;SDS011;6583;42.632;23.298;2023-05-10T04:52:31;10.13;;;7.83;;
13032;SDS011;6583;42.632;23.298;2023-05-10T04:54:59;8.80;;;7.57;;
13032;SDS011;6583;42.632;23.298;2023-05-10T04:57:26;7.60;;;6.53;;
13032;SDS011;6583;42.632;23.298;2023-05-10T04:59:52;11.00;;;7.50;;
13032;SDS011;6583;42.632;23.298;2023-05-10T05:02:19;7.93;;;7.13;;
13032;SDS011;6583;42.632;23.298;2023-05-10T05:04:45;8.30;;;6.97;;
13032;SDS011;6583;42.632;23.298;2023-05-10T05:07:12;9.13;;;7.40;;
13032;SDS011;6583;42.632;23.298;2023-05-10T05:09:39;10.27;;;7.53;;
13032;SDS011;6583;42.632;23.298;2023-05-10T05:12:07;6.97;;;6.30;;
13032;SDS011;6583;42.632;23.298;2023-05-10T05:14:38;7.50;;;6.47;;
13032;SDS011;6583;42.632;23.298;2023-05-10T05:17:06;9.63;;;6.60;;
13032;SDS011;6583;42.632;23.298;2023-05-10T05:19:32;8.07;;;7.23;;
13032;SDS011;6583;42.632;23.298;2023-05-10T05:21:59;6.67;;;4.93;;
13032;SDS011;6583;42.632;23.298;2023-05-10T05:24:26;9.47;;;7.27;;
13032;SDS011;6583;42.632;23.298;2023-05-10T05:26:52;8.23;;;6.80;;
13032;SDS011;6583;42.632;23.298;2023-05-10T05:29:20;8.90;;;8.00;;
13032;SDS011;6583;42.632;23.298;2023-05-10T05:31:47;8.33;;;7.47;;
13032;SDS011;6583;42.632;23.298;2023-05-10T05:34:13;7.60;;;6.53;;
13032;SDS011;6583;42.632;23.298;2023-05-10T05:36:40;8.27;;;7.00;;
13032;SDS011;6583;42.632;23.298;2023-05-10T05:39:07;8.03;;;7.23;;
13032;SDS011;6583;42.632;23.298;2023-05-10T05:41:33;8.50;;;7.03;;
13032;SDS011;6583;42.632;23.298;2023-05-10T05:44:00;9.60;;;8.03;;
13032;SDS011;6583;42.632;23.298;2023-05-10T05:46:28;8.90;;;7.80;;
13032;SDS011;6583;42.632;23.298;2023-05-10T05:48:55;9.90;;;7.73;;
13032;SDS011;6583;42.632;23.298;2023-05-10T05:51:21;8.20;;;6.93;;
13032;SDS011;6583;42.632;23.298;2023-05-10T05:53:48;8.77;;;7.20;;
13032;SDS011;6583;42.632;23.298;2023-05-10T05:56:15;13.20;;;9.07;;
13032;SDS011;6583;42.632;23.298;2023-05-10T05:58:42;12.60;;;9.20;;
13032;SDS011;6583;42.632;23.298;2023-05-10T06:01:09;10.57;;;8.70;;
13032;SDS011;6583;42.632;23.298;2023-05-10T06:03:37;11.73;;;9.20;;
13032;SDS011;6583;42.632;23.298;2023-05-10T06:06:04;11.23;;;8.63;;
13032;SDS011;6583;42.632;23.298;2023-05-10T06:08:31;11.60;;;9.10;;
13032;SDS011;6583;42.632;23.298;2023-05-10T06:10:58;12.33;;;10.20;;
13032;SDS011;6583;42.632;23.298;2023-05-10T06:13:25;13.70;;;9.93;;
13032;SDS011;6583;42.632;23.298;2023-05-10T06:15:56;11.80;;;9.37;;
13032;SDS011;6583;42.632;23.298;2023-05-10T06:18:23;12.37;;;9.60;;
13032;SDS011;6583;42.632;23.298;2023-05-10T06:20:52;10.57;;;9.00;;
13032;SDS011;6583;42.632;23.298;2023-05-10T06:23:19;13.80;;;10.53;;
13032;SDS011;6583;42.632;23.298;2023-05-10T06:25:45;11.17;;;8.97;;
13032;SDS011;6583;42.632;23.298;2023-05-10T06:28:12;12.30;;;9.07;;
13032;SDS011;6583;42.632;23.298;2023-05-10T06:30:39;12.73;;;9.20;;
13032;SDS011;6583;42.632;23.298;2023-05-10T06:33:05;11.73;;;8.67;;
13032;SDS011;6583;42.632;23.298;2023-05-10T06:35:32;11.20;;;9.60;;
13032;SDS011;6583;42.632;23.298;2023-05-10T06:38:00;11.60;;;8.97;;
13032;SDS011;6583;42.632;23.298;2023-05-10T06:40:27;9.97;;;7.80;;
13032;SDS011;6583;42.632;23.298;2023-05-10T06:42:53;10.53;;;8.20;;
13032;SDS011;6583;42.632;23.298;2023-05-10T06:45:20;9.53;;;8.33;;
13032;SDS011;6583;42.632;23.298;2023-05-10T06:47:47;11.63;;;9.00;;
13032;SDS011;6583;42.632;23.298;2023-05-10T06:50:13;10.57;;;7.77;;
13032;SDS011;6583;42.632;23.298;2023-05-10T06:52:40;10.33;;;8.57;;
13032;SDS011;6583;42.632;23.298;2023-05-10T06:55:09;10.43;;;8.07;;
13032;SDS011;6583;42.632;23.298;2023-05-10T06:57:36;9.90;;;8.00;;
13032;SDS011;6583;42.632;23.298;2023-05-10T07:00:03;13.17;;;9.20;;
13032;SDS011;6583;42.632;23.298;2023-05-10T07:02:31;9.90;;;8.23;;
13032;SDS011;6583;42.632;23.298;2023-05-10T07:04:58;10.93;;;8.13;;
13032;SDS011;6583;42.632;23.298;2023-05-10T07:07:24;10.50;;;8.37;;
13032;SDS011;6583;42.632;23.298;2023-05-10T07:09:51;12.30;;;9.10;;
13032;SDS011;6583;42.632;23.298;2023-05-10T07:12:19;10.73;;;7.97;;
13032;SDS011;6583;42.632;23.298;2023-05-10T07:14:46;10.47;;;8.20;;
13032;SDS011;6583;42.632;23.298;2023-05-10T07:17:12;10.40;;;8.57;;
13032;SDS011;6583;42.632;23.298;2023-05-10T07:19:39;12.00;;;9.10;;
13032;SDS011;6583;42.632;23.298;2023-05-10T07:22:06;10.57;;;8.23;;
13032;SDS011;6583;42.632;23.298;2023-05-10T07:24:32;9.73;;;8.00;;
13032;SDS011;6583;42.632;23.298;2023-05-10T07:26:59;10.03;;;8.43;;
13032;SDS011;6583;42.632;23.298;2023-05-10T07:29:27;10.03;;;7.97;;
13032;SDS011;6583;42.632;23.298;2023-05-10T07:31:54;12.77;;;8.57;;
13032;SDS011;6583;42.632;23.298;2023-05-10T07:34:21;12.33;;;9.30;;
13032;SDS011;6583;42.632;23.298;2023-05-10T07:36:48;10.93;;;9.67;;
13032;SDS011;6583;42.632;23.298;2023-05-10T07:39:14;12.20;;;8.63;;
13032;SDS011;6583;42.632;23.298;2023-05-10T07:41:41;11.60;;;8.90;;
13032;SDS011;6583;42.632;23.298;2023-05-10T07:44:08;11.23;;;8.93;;
13032;SDS011;6583;42.632;23.298;2023-05-10T07:46:36;11.27;;;8.73;;
13032;SDS011;6583;42.632;23.298;2023-05-10T07:49:03;11.37;;;9.20;;
13032;SDS011;6583;42.632;23.298;2023-05-10T07:51:30;9.97;;;8.37;;
13032;SDS011;6583;42.632;23.298;2023-05-10T07:53:56;8.77;;;7.17;;
13032;SDS011;6583;42.632;23.298;2023-05-10T07:56:25;13.77;;;9.93;;
13032;SDS011;6583;42.632;23.298;2023-05-10T07:58:54;13.10;;;10.10;;
13032;SDS011;6583;42.632;23.298;2023-05-10T08:01:21;13.60;;;9.70;;
13032;SDS011;6583;42.632;23.298;2023-05-10T08:03:50;13.37;;;10.10;;
13032;SDS011;6583;42.632;23.298;2023-05-10T08:06:18;13.50;;;10.50;;
13032;SDS011;6583;42.632;23.298;2023-05-10T08:08:45;12.33;;;10.10;;
13032;SDS011;6583;42.632;23.298;2023-05-10T08:11:14;15.67;;;11.73;;
13032;SDS011;6583;42.632;23.298;2023-05-10T08:13:41;15.27;;;10.90;;
13032;SDS011;6583;42.632;23.298;2023-05-10T08:16:08;12.07;;;10.20;;
13032;SDS011;6583;42.632;23.298;2023-05-10T08:18:34;12.50;;;10.47;;
13032;SDS011;6583;42.632;23.298;2023-05-10T08:21:02;12.13;;;9.90;;
13032;SDS011;6583;42.632;23.298;2023-05-10T08:23:29;14.83;;;11.83;;
13032;SDS011;6583;42.632;23.298;2023-05-10T08:25:56;17.60;;;13.47;;
13032;SDS011;6583;42.632;23.298;2023-05-10T08:28:22;14.83;;;11.23;;
13032;SDS011;6583;42.632;23.298;2023-05-10T08:30:49;15.80;;;12.37;;
13032;SDS011;6583;42.632;23.298;2023-05-10T08:33:17;14.60;;;11.17;;
13032;SDS011;6583;42.632;23.298;2023-05-10T08:35:43;14.00;;;11.40;;
13032;SDS011;6583;42.632;23.298;2023-05-10T08:38:11;14.53;;;11.80;;
13032;SDS011;6583;42.632;23.298;2023-05-10T08:40:39;13.20;;;10.60;;
13032;SDS011;6583;42.632;23.298;2023-05-10T08:43:09;12.47;;;9.77;;
13032;SDS011;6583;42.632;23.298;2023-05-10T08:45:37;14.80;;;11.37;;
13032;SDS011;6583;42.632;23.298;2023-05-10T08:48:06;14.40;;;11.27;;
13032;SDS011;6583;42.632;23.298;2023-05-10T08:50:33;15.10;;;12.20;;
13032;SDS011;6583;42.632;23.298;2023-05-10T08:53:03;10.67;;;8.80;;
13032;SDS011;6583;42.632;23.298;2023-05-10T08:55:33;13.43;;;11.37;;
13032;SDS011;6583;42.632;23.298;2023-05-10T08:58:01;13.40;;;12.00;;
13032;SDS011;6583;42.632;23.298;2023-05-10T09:00:28;13.17;;;10.47;;
13032;SDS011;6583;42.632;23.298;2023-05-10T09:02:55;13.97;;;11.90;;
13032;SDS011;6583;42.632;23.298;2023-05-10T09:05:23;11.30;;;9.97;;
13032;SDS011;6583;42.632;23.298;2023-05-10T09:07:50;14.17;;;12.07;;
13032;SDS011;6583;42.632;23.298;2023-05-10T09:10:18;16.07;;;13.23;;
13032;SDS011;6583;42.632;23.298;2023-05-10T09:12:46;17.07;;;14.17;;
13032;SDS011;6583;42.632;23.298;2023-05-10T09:15:14;15.20;;;12.70;;
13032;SDS011;6583;42.632;23.298;2023-05-10T09:17:44;14.53;;;12.67;;
13032;SDS011;6583;42.632;23.298;2023-05-10T09:20:11;16.13;;;14.13;;
13032;SDS011;6583;42.632;23.298;2023-05-10T09:22:38;16.67;;;14.30;;
13032;SDS011;6583;42.632;23.298;2023-05-10T09:25:05;17.57;;;14.13;;
13032;SDS011;6583;42.632;23.298;2023-05-10T09:27:33;20.30;;;14.83;;
13032;SDS011;6583;42.632;23.298;2023-05-10T09:30:01;15.40;;;13.30;;
13032;SDS011;6583;42.632;23.298;2023-05-10T09:32:38;14.57;;;12.57;;
13032;SDS011;6583;42.632;23.298;2023-05-10T09:35:06;13.90;;;11.37;;
13032;SDS011;6583;42.632;23.298;2023-05-10T09:37:38;12.67;;;11.20;;
13032;SDS011;6583;42.632;23.298;2023-05-10T09:40:06;15.10;;;11.93;;
13032;SDS011;6583;42.632;23.298;2023-05-10T09:42:34;13.50;;;11.10;;
13032;SDS011;6583;42.632;23.298;2023-05-10T09:45:06;14.60;;;12.27;;
13032;SDS011;6583;42.632;23.298;2023-05-10T09:47:33;13.00;;;11.07;;
13032;SDS011;6583;42.632;23.298;2023-05-10T09:50:01;13.13;;;11.43;;
13032;SDS011;6583;42.632;23.298;2023-05-10T09:52:29;14.37;;;12.50;;
13032;SDS011;6583;42.632;23.298;2023-05-10T09:54:57;14.87;;;12.70;;
13032;SDS011;6583;42.632;23.298;2023-05-10T09:57:24;9.63;;;8.37;;
13032;SDS011;6583;42.632;23.298;2023-05-10T09:59:51;12.87;;;11.47;;
13032;SDS011;6583;42.632;23.298;2023-05-10T10:02:20;14.17;;;8.67;;
13032;SDS011;6583;42.632;23.298;2023-05-10T10:04:54;14.57;;;11.60;;
13032;SDS011;6583;42.632;23.298;2023-05-10T10:07:22;14.27;;;12.10;;
13032;SDS011;6583;42.632;23.298;2023-05-10T10:09:51;13.07;;;11.30;;
13032;SDS011;6583;42.632;23.298;2023-05-10T10:12:18;15.33;;;12.13;;
13032;SDS011;6583;42.632;23.298;2023-05-10T10:14:46;14.83;;;13.23;;
13032;SDS011;6583;42.632;23.298;2023-05-10T10:17:14;13.60;;;12.20;;
13032;SDS011;6583;42.632;23.298;2023-05-10T10:19:42;12.50;;;10.10;;
13032;SDS011;6583;42.632;23.298;2023-05-10T10:22:09;15.43;;;12.17;;
13032;SDS011;6583;42.632;23.298;2023-05-10T10:24:37;14.50;;;12.90;;
13032;SDS011;6583;42.632;23.298;2023-05-10T10:27:08;13.50;;;11.93;;
13032;SDS011;6583;42.632;23.298;2023-05-10T10:29:44;14.33;;;11.50;;
13032;SDS011;6583;42.632;23.298;2023-05-10T10:32:20;14.90;;;12.00;;
13032;SDS011;6583;42.632;23.298;2023-05-10T10:34:53;14.37;;;12.47;;
13032;SDS011;6583;42.632;23.298;2023-05-10T10:37:21;14.60;;;13.00;;
13032;SDS011;6583;42.632;23.298;2023-05-10T10:39:48;16.90;;;14.30;;
13032;SDS011;6583;42.632;23.298;2023-05-10T10:42:20;14.77;;;12.73;;
13032;SDS011;6583;42.632;23.298;2023-05-10T10:45:14;12.13;;;10.83;;
13032;SDS011;6583;42.632;23.298;2023-05-10T10:47:41;11.50;;;10.17;;
13032;SDS011;6583;42.632;23.298;2023-05-10T10:50:10;11.67;;;10.40;;
13032;SDS011;6583;42.632;23.298;2023-05-10T10:52:38;12.27;;;10.87;;
13032;SDS011;6583;42.632;23.298;2023-05-10T10:55:06;12.27;;;10.87;;
13032;SDS011;6583;42.632;23.298;2023-05-10T10:57:47;11.43;;;9.63;;
13032;SDS011;6583;42.632;23.298;2023-05-10T11:00:20;11.93;;;10.40;;
13032;SDS011;6583;42.632;23.298;2023-05-10T11:02:52;12.93;;;11.60;;
13032;SDS011;6583;42.632;23.298;2023-05-10T11:08:13;13.90;;;11.67;;
13032;SDS011;6583;42.632;23.298;2023-05-10T11:13:33;11.07;;;8.83;;
13032;SDS011;6583;42.632;23.298;2023-05-10T11:16:10;13.77;;;11.63;;
13032;SDS011;6583;42.632;23.298;2023-05-10T11:18:38;14.03;;;12.63;;
13032;SDS011;6583;42.632;23.298;2023-05-10T11:21:08;13.00;;;11.70;;
13032;SDS011;6583;42.632;23.298;2023-05-10T11:23:47;12.57;;;11.27;;
13032;SDS011;6583;42.632;23.298;2023-05-10T11:26:15;14.73;;;11.87;;
13032;SDS011;6583;42.632;23.298;2023-05-10T11:28:43;13.63;;;11.33;;
13032;SDS011;6583;42.632;23.298;2023-05-10T11:31:12;12.60;;;11.30;;
13032;SDS011;6583;42.632;23.298;2023-05-10T11:33:43;12.83;;;10.90;;
13032;SDS011;6583;42.632;23.298;2023-05-10T11:36:12;13.03;;;11.67;;
13032;SDS011;6583;42.632;23.298;2023-05-10T11:38:40;13.70;;;11.40;;
13032;SDS011;6583;42.632;23.298;2023-05-10T11:41:07;12.77;;;11.37;;
13032;SDS011;6583;42.632;23.298;2023-05-10T11:43:35;12.87;;;11.00;;
13032;SDS011;6583;42.632;23.298;2023-05-10T11:46:03;13.10;;;11.70;;
13032;SDS011;6583;42.632;23.298;2023-05-10T11:48:30;13.53;;;12.13;;
13032;SDS011;6583;42.632;23.298;2023-05-10T11:50:57;13.00;;;11.70;;
13032;SDS011;6583;42.632;23.298;2023-05-10T11:53:26;13.97;;;11.40;;
13032;SDS011;6583;42.632;23.298;2023-05-10T11:55:53;14.13;;;11.73;;
13032;SDS011;6583;42.632;23.298;2023-05-10T11:58:20;13.37;;;11.97;;
13032;SDS011;6583;42.632;23.298;2023-05-10T12:00:48;15.00;;;12.40;;
13032;SDS011;6583;42.632;23.298;2023-05-10T12:03:16;14.13;;;12.23;;
13032;SDS011;6583;42.632;23.298;2023-05-10T12:05:43;14.20;;;12.60;;
13032;SDS011;6583;42.632;23.298;2023-05-10T12:08:13;11.83;;;10.53;;
13032;SDS011;6583;42.632;23.298;2023-05-10T12:10:42;13.77;;;12.33;;
13032;SDS011;6583;42.632;23.298;2023-05-10T12:13:12;11.93;;;10.63;;
13032;SDS011;6583;42.632;23.298;2023-05-10T12:15:40;14.40;;;12.57;;
13032;SDS011;6583;42.632;23.298;2023-05-10T12:18:07;14.20;;;12.37;;
13032;SDS011;6583;42.632;23.298;2023-05-10T12:20:35;15.60;;;13.00;;
13032;SDS011;6583;42.632;23.298;2023-05-10T12:23:02;14.10;;;12.60;;
13032;SDS011;6583;42.632;23.298;2023-05-10T12:25:31;15.27;;;12.80;;
13032;SDS011;6583;42.632;23.298;2023-05-10T12:28:03;14.33;;;12.70;;
13032;SDS011;6583;42.632;23.298;2023-05-10T12:30:31;14.67;;;13.10;;
13032;SDS011;6583;42.632;23.298;2023-05-10T12:32:59;15.40;;;13.13;;
13032;SDS011;6583;42.632;23.298;2023-05-10T12:35:29;13.73;;;12.07;;
13032;SDS011;6583;42.632;23.298;2023-05-10T12:37:56;14.20;;;12.40;;
13032;SDS011;6583;42.632;23.298;2023-05-10T12:40:24;15.93;;;13.27;;
13032;SDS011;6583;42.632;23.298;2023-05-10T12:42:50;14.03;;;12.53;;
13032;SDS011;6583;42.632;23.298;2023-05-10T12:45:18;13.60;;;11.80;;
13032;SDS011;6583;42.632;23.298;2023-05-10T12:47:45;14.93;;;12.33;;
13032;SDS011;6583;42.632;23.298;2023-05-10T12:50:12;16.27;;;13.07;;
13032;SDS011;6583;42.632;23.298;2023-05-10T12:52:38;15.37;;;12.47;;
13032;SDS011;6583;42.632;23.298;2023-05-10T12:55:05;15.30;;;11.87;;
13032;SDS011;6583;42.632;23.298;2023-05-10T12:57:32;14.43;;;12.30;;
13032;SDS011;6583;42.632;23.298;2023-05-10T12:59:59;15.00;;;12.00;;
13032;SDS011;6583;42.632;23.298;2023-05-10T13:02:27;15.17;;;11.23;;
13032;SDS011;6583;42.632;23.298;2023-05-10T13:04:54;14.87;;;13.00;;
13032;SDS011;6583;42.632;23.298;2023-05-10T13:07:21;16.67;;;11.70;;
13032;SDS011;6583;42.632;23.298;2023-05-10T13:09:47;13.67;;;12.20;;
13032;SDS011;6583;42.632;23.298;2023-05-10T13:12:14;16.67;;;12.70;;
13032;SDS011;6583;42.632;23.298;2023-05-10T13:14:41;14.67;;;12.10;;
13032;SDS011;6583;42.632;23.298;2023-05-10T13:17:07;13.47;;;12.07;;
13032;SDS011;6583;42.632;23.298;2023-05-10T13:19:35;13.50;;;12.10;;
13032;SDS011;6583;42.632;23.298;2023-05-10T13:22:02;13.90;;;11.30;;
13032;SDS011;6583;42.632;23.298;2023-05-10T13:24:29;13.43;;;12.03;;
13032;SDS011;6583;42.632;23.298;2023-05-10T13:26:55;15.83;;;12.57;;
13032;SDS011;6583;42.632;23.298;2023-05-10T13:29:22;12.70;;;10.87;;
13032;SDS011;6583;42.632;23.298;2023-05-10T13:31:49;12.30;;;10.20;;
13032;SDS011;6583;42.632;23.298;2023-05-10T13:34:16;12.87;;;9.73;;
13032;SDS011;6583;42.632;23.298;2023-05-10T13:36:46;12.03;;;8.27;;
13032;SDS011;6583;42.632;23.298;2023-05-10T13:39:13;12.80;;;11.47;;
13032;SDS011;6583;42.632;23.298;2023-05-10T13:41:40;14.10;;;11.37;;
13032;SDS011;6583;42.632;23.298;2023-05-10T13:44:07;14.77;;;11.47;;
13032;SDS011;6583;42.632;23.298;2023-05-10T13:46:34;15.70;;;11.33;;
13032;SDS011;6583;42.632;23.298;2023-05-10T13:49:00;14.30;;;12.20;;
13032;SDS011;6583;42.632;23.298;2023-05-10T13:51:27;14.73;;;11.57;;
13032;SDS011;6583;42.632;23.298;2023-05-10T13:53:55;13.87;;;10.50;;
13032;SDS011;6583;42.632;23.298;2023-05-10T13:56:37;14.03;;;12.17;;
13032;SDS011;6583;42.632;23.298;2023-05-10T13:59:03;15.10;;;12.23;;
13032;SDS011;6583;42.632;23.298;2023-05-10T14:01:30;15.07;;;10.97;;
13032;SDS011;6583;42.632;23.298;2023-05-10T14:03:57;13.43;;;10.97;;
13032;SDS011;6583;42.632;23.298;2023-05-10T14:06:23;14.13;;;11.60;;
13032;SDS011;6583;42.632;23.298;2023-05-10T14:08:50;13.70;;;10.93;;
13032;SDS011;6583;42.632;23.298;2023-05-10T14:11:18;12.63;;;11.10;;
13032;SDS011;6583;42.632;23.298;2023-05-10T14:13:45;13.63;;;10.97;;
13032;SDS011;6583;42.632;23.298;2023-05-10T14:16:12;12.47;;;10.90;;
13032;SDS011;6583;42.632;23.298;2023-05-10T14:18:39;13.20;;;11.80;;
13032;SDS011;6583;42.632;23.298;2023-05-10T14:21:06;13.53;;;10.93;;
13032;SDS011;6583;42.632;23.298;2023-05-10T14:23:33;14.80;;;11.33;;
13032;SDS011;6583;42.632;23.298;2023-05-10T14:25:59;13.33;;;11.00;;
13032;SDS011;6583;42.632;23.298;2023-05-10T14:28:28;11.87;;;10.27;;
13032;SDS011;6583;42.632;23.298;2023-05-10T14:30:55;12.90;;;10.83;;
13032;SDS011;6583;42.632;23.298;2023-05-10T14:33:21;12.90;;;10.90;;
13032;SDS011;6583;42.632;23.298;2023-05-10T14:35:48;14.93;;;11.20;;
13032;SDS011;6583;42.632;23.298;2023-05-10T14:38:14;14.23;;;11.17;;
13032;SDS011;6583;42.632;23.298;2023-05-10T14:40:41;15.37;;;11.57;;
13032;SDS011;6583;42.632;23.298;2023-05-10T14:43:08;12.73;;;11.13;;
13032;SDS011;6583;42.632;23.298;2023-05-10T14:45:36;13.30;;;11.53;;
13032;SDS011;6583;42.632;23.298;2023-05-10T14:48:03;13.50;;;11.47;;
13032;SDS011;6583;42.632;23.298;2023-05-10T14:50:30;12.80;;;11.10;;